sensor_id;sensor_type;location;lat;lon;timestamp;P1;durP1;ratioP1;P2;durP2;ratioP2
21741;SDS011;11033;47.490;11.116;2023-12-07T00:00:50;31.75;;;22.38;;
21741;SDS011;11033;47.490;11.116;2023-12-07T00:03:15;23.52;;;17.52;;
21741;SDS011;11033;47.490;11.116;2023-12-07T00:05:40;30.85;;;21.45;;
21741;SDS011;11033;47.490;11.116;2023-12-07T00:08:06;23.98;;;18.15;;
21741;SDS011;11033;47.490;11.116;2023-12-07T00:10:34;44.60;;;28.95;;
21741;SDS011;11033;47.490;11.116;2023-12-07T00:13:01;30.23;;;22.35;;
21741;SDS011;11033;47.490;11.116;2023-12-07T00:15:26;30.10;;;21.58;;
21741;SDS011;11033;47.490;11.116;2023-12-07T00:17:51;47.00;;;30.92;;
21741;SDS011;11033;47.490;11.116;2023-12-07T00:20:17;40.25;;;26.48;;
21741;SDS011;11033;47.490;11.116;2023-12-07T00:22:42;53.30;;;33.80;;
21741;SDS011;11033;47.490;11.116;2023-12-07T00:25:07;45.05;;;29.58;;
21741;SDS011;11033;47.490;11.116;2023-12-07T00:27:32;42.33;;;29.40;;
21741;SDS011;11033;47.490;11.116;2023-12-07T00:29:58;40.33;;;27.17;;
21741;SDS011;11033;47.490;11.116;2023-12-07T00:32:23;42.25;;;30.02;;
21741;SDS011;11033;47.490;11.116;2023-12-07T00:34:48;46.90;;;32.72;;
21741;SDS011;11033;47.490;11.116;2023-12-07T00:37:14;39.20;;;28.42;;
21741;SDS011;11033;47.490;11.116;2023-12-07T00:39:40;33.00;;;24.45;;
21741;SDS011;11033;47.490;11.116;2023-12-07T00:42:06;35.67;;;25.65;;
21741;SDS011;11033;47.490;11.116;2023-12-07T00:44:31;39.47;;;28.40;;
21741;SDS011;11033;47.490;11.116;2023-12-07T00:46:56;42.10;;;29.48;;
21741;SDS011;11033;47.490;11.116;2023-12-07T00:49:22;39.83;;;27.95;;
21741;SDS011;11033;47.490;11.116;2023-12-07T00:51:47;33.92;;;24.85;;
21741;SDS011;11033;47.490;11.116;2023-12-07T00:54:12;36.75;;;26.55;;
21741;SDS011;11033;47.490;11.116;2023-12-07T00:56:38;30.00;;;21.50;;
21741;SDS011;11033;47.490;11.116;2023-12-07T00:59:03;32.17;;;22.33;;
21741;SDS011;11033;47.490;11.116;2023-12-07T01:01:29;24.83;;;18.73;;
21741;SDS011;11033;47.490;11.116;2023-12-07T01:03:54;21.45;;;16.30;;
21741;SDS011;11033;47.490;11.116;2023-12-07T01:06:19;20.70;;;15.68;;
21741;SDS011;11033;47.490;11.116;2023-12-07T01:08:45;23.60;;;16.73;;
21741;SDS011;11033;47.490;11.116;2023-12-07T01:11:10;20.98;;;15.68;;
21741;SDS011;11033;47.490;11.116;2023-12-07T01:13:35;16.38;;;13.40;;
21741;SDS011;11033;47.490;11.116;2023-12-07T01:16:01;20.52;;;14.60;;
21741;SDS011;11033;47.490;11.116;2023-12-07T01:18:26;16.27;;;12.60;;
21741;SDS011;11033;47.490;11.116;2023-12-07T01:20:51;13.88;;;11.13;;
21741;SDS011;11033;47.490;11.116;2023-12-07T01:23:17;16.25;;;12.43;;
21741;SDS011;11033;47.490;11.116;2023-12-07T01:25:42;11.90;;;9.77;;
21741;SDS011;11033;47.490;11.116;2023-12-07T01:28:07;12.88;;;10.20;;
21741;SDS011;11033;47.490;11.116;2023-12-07T01:30:33;17.42;;;12.93;;
21741;SDS011;11033;47.490;11.116;2023-12-07T01:32:58;14.27;;;10.88;;
21741;SDS011;11033;47.490;11.116;2023-12-07T01:35:24;16.63;;;13.18;;
21741;SDS011;11033;47.490;11.116;2023-12-07T01:37:49;18.33;;;13.82;;
21741;SDS011;11033;47.490;11.116;2023-12-07T01:40:15;15.27;;;11.88;;
21741;SDS011;11033;47.490;11.116;2023-12-07T01:42:42;14.82;;;11.07;;
21741;SDS011;11033;47.490;11.116;2023-12-07T01:45:14;15.02;;;11.48;;
21741;SDS011;11033;47.490;11.116;2023-12-07T01:47:39;8.52;;;6.88;;
21741;SDS011;11033;47.490;11.116;2023-12-07T01:50:06;10.73;;;8.82;;
21741;SDS011;11033;47.490;11.116;2023-12-07T01:52:32;12.20;;;9.30;;
21741;SDS011;11033;47.490;11.116;2023-12-07T01:57:28;12.50;;;9.27;;
21741;SDS011;11033;47.490;11.116;2023-12-07T01:59:54;13.02;;;10.70;;
21741;SDS011;11033;47.490;11.116;2023-12-07T02:02:19;17.40;;;11.88;;
21741;SDS011;11033;47.490;11.116;2023-12-07T02:04:45;14.18;;;10.35;;
21741;SDS011;11033;47.490;11.116;2023-12-07T02:07:10;16.60;;;11.00;;
21741;SDS011;11033;47.490;11.116;2023-12-07T02:09:36;14.30;;;10.63;;
21741;SDS011;11033;47.490;11.116;2023-12-07T02:12:02;14.18;;;10.77;;
21741;SDS011;11033;47.490;11.116;2023-12-07T02:14:28;17.17;;;12.70;;
21741;SDS011;11033;47.490;11.116;2023-12-07T02:16:56;15.40;;;11.88;;
21741;SDS011;11033;47.490;11.116;2023-12-07T02:22:16;18.65;;;13.27;;
21741;SDS011;11033;47.490;11.116;2023-12-07T02:24:48;17.98;;;13.13;;
21741;SDS011;11033;47.490;11.116;2023-12-07T02:27:44;16.35;;;12.43;;
21741;SDS011;11033;47.490;11.116;2023-12-07T02:30:13;15.82;;;12.45;;
21741;SDS011;11033;47.490;11.116;2023-12-07T02:32:42;15.95;;;12.55;;
21741;SDS011;11033;47.490;11.116;2023-12-07T02:35:10;17.17;;;13.23;;
21741;SDS011;11033;47.490;11.116;2023-12-07T02:37:44;17.23;;;13.30;;
21741;SDS011;11033;47.490;11.116;2023-12-07T02:40:10;18.80;;;13.18;;
21741;SDS011;11033;47.490;11.116;2023-12-07T02:42:39;21.60;;;14.05;;
21741;SDS011;11033;47.490;11.116;2023-12-07T02:45:06;19.05;;;13.88;;
21741;SDS011;11033;47.490;11.116;2023-12-07T02:47:32;16.77;;;11.57;;
21741;SDS011;11033;47.490;11.116;2023-12-07T02:49:58;17.52;;;13.35;;
21741;SDS011;11033;47.490;11.116;2023-12-07T02:52:23;20.65;;;13.75;;
21741;SDS011;11033;47.490;11.116;2023-12-07T02:54:48;19.77;;;15.13;;
21741;SDS011;11033;47.490;11.116;2023-12-07T02:57:14;19.40;;;14.10;;
21741;SDS011;11033;47.490;11.116;2023-12-07T02:59:40;21.77;;;14.57;;
21741;SDS011;11033;47.490;11.116;2023-12-07T03:02:05;17.73;;;12.65;;
21741;SDS011;11033;47.490;11.116;2023-12-07T03:04:30;22.88;;;14.10;;
21741;SDS011;11033;47.490;11.116;2023-12-07T03:06:56;21.15;;;14.88;;
21741;SDS011;11033;47.490;11.116;2023-12-07T03:09:21;18.95;;;12.32;;
21741;SDS011;11033;47.490;11.116;2023-12-07T03:11:46;19.27;;;12.95;;
21741;SDS011;11033;47.490;11.116;2023-12-07T03:14:12;19.90;;;13.70;;
21741;SDS011;11033;47.490;11.116;2023-12-07T03:16:38;16.38;;;12.07;;
21741;SDS011;11033;47.490;11.116;2023-12-07T03:19:03;19.48;;;14.98;;
21741;SDS011;11033;47.490;11.116;2023-12-07T03:21:29;21.33;;;14.75;;
21741;SDS011;11033;47.490;11.116;2023-12-07T03:23:54;22.45;;;14.05;;
21741;SDS011;11033;47.490;11.116;2023-12-07T03:26:19;17.90;;;11.73;;
21741;SDS011;11033;47.490;11.116;2023-12-07T03:28:45;18.25;;;12.23;;
21741;SDS011;11033;47.490;11.116;2023-12-07T03:31:10;20.10;;;13.57;;
21741;SDS011;11033;47.490;11.116;2023-12-07T03:33:35;28.33;;;16.42;;
21741;SDS011;11033;47.490;11.116;2023-12-07T03:36:01;21.67;;;14.60;;
21741;SDS011;11033;47.490;11.116;2023-12-07T03:38:27;19.50;;;14.07;;
21741;SDS011;11033;47.490;11.116;2023-12-07T03:40:52;20.38;;;14.43;;
21741;SDS011;11033;47.490;11.116;2023-12-07T03:43:19;21.60;;;14.88;;
21741;SDS011;11033;47.490;11.116;2023-12-07T03:45:45;22.27;;;14.43;;
21741;SDS011;11033;47.490;11.116;2023-12-07T03:48:10;23.10;;;15.10;;
21741;SDS011;11033;47.490;11.116;2023-12-07T03:50:36;22.25;;;15.00;;
21741;SDS011;11033;47.490;11.116;2023-12-07T03:53:01;19.23;;;13.77;;
21741;SDS011;11033;47.490;11.116;2023-12-07T03:55:26;20.17;;;13.38;;
21741;SDS011;11033;47.490;11.116;2023-12-07T03:57:51;24.60;;;15.80;;
21741;SDS011;11033;47.490;11.116;2023-12-07T04:00:17;23.70;;;16.13;;
21741;SDS011;11033;47.490;11.116;2023-12-07T04:02:42;18.08;;;12.60;;
21741;SDS011;11033;47.490;11.116;2023-12-07T04:05:07;21.60;;;14.05;;
21741;SDS011;11033;47.490;11.116;2023-12-07T04:07:33;24.38;;;15.18;;
21741;SDS011;11033;47.490;11.116;2023-12-07T04:09:59;20.23;;;14.18;;
21741;SDS011;11033;47.490;11.116;2023-12-07T04:12:24;20.25;;;14.65;;
21741;SDS011;11033;47.490;11.116;2023-12-07T04:14:50;22.35;;;15.38;;
21741;SDS011;11033;47.490;11.116;2023-12-07T04:17:16;24.38;;;15.63;;
21741;SDS011;11033;47.490;11.116;2023-12-07T04:19:42;22.65;;;15.15;;
21741;SDS011;11033;47.490;11.116;2023-12-07T04:22:07;25.25;;;16.85;;
21741;SDS011;11033;47.490;11.116;2023-12-07T04:24:32;26.38;;;16.30;;
21741;SDS011;11033;47.490;11.116;2023-12-07T04:26:58;21.10;;;14.10;;
21741;SDS011;11033;47.490;11.116;2023-12-07T04:29:23;20.17;;;13.95;;
21741;SDS011;11033;47.490;11.116;2023-12-07T04:31:48;25.38;;;16.70;;
21741;SDS011;11033;47.490;11.116;2023-12-07T04:34:14;25.42;;;16.40;;
21741;SDS011;11033;47.490;11.116;2023-12-07T04:36:39;21.15;;;14.68;;
21741;SDS011;11033;47.490;11.116;2023-12-07T04:39:04;20.63;;;14.50;;
21741;SDS011;11033;47.490;11.116;2023-12-07T04:41:29;26.05;;;16.38;;
21741;SDS011;11033;47.490;11.116;2023-12-07T04:43:55;20.55;;;14.20;;
21741;SDS011;11033;47.490;11.116;2023-12-07T04:46:20;23.13;;;15.38;;
21741;SDS011;11033;47.490;11.116;2023-12-07T04:48:45;22.38;;;15.15;;
21741;SDS011;11033;47.490;11.116;2023-12-07T04:51:11;21.15;;;14.30;;
21741;SDS011;11033;47.490;11.116;2023-12-07T04:53:36;26.42;;;16.67;;
21741;SDS011;11033;47.490;11.116;2023-12-07T04:56:01;23.77;;;15.15;;
21741;SDS011;11033;47.490;11.116;2023-12-07T04:58:27;23.95;;;15.52;;
21741;SDS011;11033;47.490;11.116;2023-12-07T05:00:52;23.08;;;15.38;;
21741;SDS011;11033;47.490;11.116;2023-12-07T05:03:17;23.98;;;15.45;;
21741;SDS011;11033;47.490;11.116;2023-12-07T05:05:43;25.08;;;17.00;;
21741;SDS011;11033;47.490;11.116;2023-12-07T05:08:08;21.27;;;14.80;;
21741;SDS011;11033;47.490;11.116;2023-12-07T05:10:33;22.80;;;14.75;;
21741;SDS011;11033;47.490;11.116;2023-12-07T05:12:59;21.88;;;13.68;;
21741;SDS011;11033;47.490;11.116;2023-12-07T05:15:24;28.10;;;16.30;;
21741;SDS011;11033;47.490;11.116;2023-12-07T05:17:50;20.90;;;14.57;;
21741;SDS011;11033;47.490;11.116;2023-12-07T05:20:15;18.60;;;13.07;;
21741;SDS011;11033;47.490;11.116;2023-12-07T05:22:40;16.27;;;11.82;;
21741;SDS011;11033;47.490;11.116;2023-12-07T05:25:06;24.27;;;14.57;;
21741;SDS011;11033;47.490;11.116;2023-12-07T05:27:31;26.90;;;16.63;;
21741;SDS011;11033;47.490;11.116;2023-12-07T05:29:57;21.48;;;14.60;;
21741;SDS011;11033;47.490;11.116;2023-12-07T05:32:22;23.15;;;15.20;;
21741;SDS011;11033;47.490;11.116;2023-12-07T05:34:47;25.50;;;14.98;;
21741;SDS011;11033;47.490;11.116;2023-12-07T05:37:12;21.85;;;14.18;;
21741;SDS011;11033;47.490;11.116;2023-12-07T05:39:38;19.27;;;13.70;;
21741;SDS011;11033;47.490;11.116;2023-12-07T05:42:03;21.40;;;14.38;;
21741;SDS011;11033;47.490;11.116;2023-12-07T05:44:32;22.80;;;14.32;;
21741;SDS011;11033;47.490;11.116;2023-12-07T05:46:57;22.05;;;15.00;;
21741;SDS011;11033;47.490;11.116;2023-12-07T05:49:22;25.30;;;16.13;;
21741;SDS011;11033;47.490;11.116;2023-12-07T05:51:48;21.70;;;14.93;;
21741;SDS011;11033;47.490;11.116;2023-12-07T05:54:17;23.45;;;14.52;;
21741;SDS011;11033;47.490;11.116;2023-12-07T05:56:43;20.73;;;14.40;;
21741;SDS011;11033;47.490;11.116;2023-12-07T05:59:08;21.77;;;15.23;;
21741;SDS011;11033;47.490;11.116;2023-12-07T06:01:33;25.15;;;16.20;;
21741;SDS011;11033;47.490;11.116;2023-12-07T06:03:58;22.23;;;14.32;;
21741;SDS011;11033;47.490;11.116;2023-12-07T06:06:24;23.90;;;15.10;;
21741;SDS011;11033;47.490;11.116;2023-12-07T06:08:49;25.83;;;16.50;;
21741;SDS011;11033;47.490;11.116;2023-12-07T06:11:15;29.02;;;18.58;;
21741;SDS011;11033;47.490;11.116;2023-12-07T06:13:40;30.80;;;17.77;;
21741;SDS011;11033;47.490;11.116;2023-12-07T06:16:06;28.73;;;18.17;;
21741;SDS011;11033;47.490;11.116;2023-12-07T06:18:31;25.20;;;16.83;;
21741;SDS011;11033;47.490;11.116;2023-12-07T06:20:57;23.13;;;14.80;;
21741;SDS011;11033;47.490;11.116;2023-12-07T06:23:22;18.42;;;13.52;;
21741;SDS011;11033;47.490;11.116;2023-12-07T06:25:47;14.65;;;10.43;;
21741;SDS011;11033;47.490;11.116;2023-12-07T06:28:13;13.07;;;9.02;;
21741;SDS011;11033;47.490;11.116;2023-12-07T06:30:38;14.65;;;8.75;;
21741;SDS011;11033;47.490;11.116;2023-12-07T06:33:04;12.32;;;8.85;;
21741;SDS011;11033;47.490;11.116;2023-12-07T06:35:29;10.32;;;8.13;;
21741;SDS011;11033;47.490;11.116;2023-12-07T06:37:55;14.85;;;9.40;;
21741;SDS011;11033;47.490;11.116;2023-12-07T06:40:21;16.30;;;10.20;;
21741;SDS011;11033;47.490;11.116;2023-12-07T06:42:46;21.08;;;12.73;;
21741;SDS011;11033;47.490;11.116;2023-12-07T06:45:11;17.23;;;12.18;;
21741;SDS011;11033;47.490;11.116;2023-12-07T06:47:39;18.10;;;12.77;;
21741;SDS011;11033;47.490;11.116;2023-12-07T06:50:05;15.57;;;11.60;;
21741;SDS011;11033;47.490;11.116;2023-12-07T06:52:34;16.58;;;11.50;;
21741;SDS011;11033;47.490;11.116;2023-12-07T06:55:00;17.02;;;11.80;;
21741;SDS011;11033;47.490;11.116;2023-12-07T06:57:25;19.85;;;13.63;;
21741;SDS011;11033;47.490;11.116;2023-12-07T06:59:51;17.75;;;12.13;;
21741;SDS011;11033;47.490;11.116;2023-12-07T07:02:16;20.00;;;13.10;;
21741;SDS011;11033;47.490;11.116;2023-12-07T07:04:41;20.80;;;14.88;;
21741;SDS011;11033;47.490;11.116;2023-12-07T07:07:07;21.88;;;14.38;;
21741;SDS011;11033;47.490;11.116;2023-12-07T07:09:32;27.40;;;17.58;;
21741;SDS011;11033;47.490;11.116;2023-12-07T07:11:57;21.80;;;14.30;;
21741;SDS011;11033;47.490;11.116;2023-12-07T07:14:23;26.70;;;16.30;;
21741;SDS011;11033;47.490;11.116;2023-12-07T07:16:48;26.55;;;16.35;;
21741;SDS011;11033;47.490;11.116;2023-12-07T07:19:13;21.38;;;14.23;;
21741;SDS011;11033;47.490;11.116;2023-12-07T07:21:39;19.38;;;13.50;;
21741;SDS011;11033;47.490;11.116;2023-12-07T07:24:04;20.30;;;13.45;;
21741;SDS011;11033;47.490;11.116;2023-12-07T07:26:30;24.70;;;15.18;;
21741;SDS011;11033;47.490;11.116;2023-12-07T07:28:55;22.90;;;15.07;;
21741;SDS011;11033;47.490;11.116;2023-12-07T07:31:20;18.92;;;13.13;;
21741;SDS011;11033;47.490;11.116;2023-12-07T07:33:46;24.08;;;14.57;;
21741;SDS011;11033;47.490;11.116;2023-12-07T07:36:14;18.30;;;12.68;;
21741;SDS011;11033;47.490;11.116;2023-12-07T07:38:40;22.88;;;13.52;;
21741;SDS011;11033;47.490;11.116;2023-12-07T07:41:06;27.13;;;16.95;;
21741;SDS011;11033;47.490;11.116;2023-12-07T07:43:31;26.42;;;16.05;;
21741;SDS011;11033;47.490;11.116;2023-12-07T07:45:56;22.52;;;14.25;;
21741;SDS011;11033;47.490;11.116;2023-12-07T07:48:22;20.75;;;14.25;;
21741;SDS011;11033;47.490;11.116;2023-12-07T07:50:47;31.67;;;18.88;;
21741;SDS011;11033;47.490;11.116;2023-12-07T07:53:12;24.70;;;16.60;;
21741;SDS011;11033;47.490;11.116;2023-12-07T07:55:38;20.20;;;14.15;;
21741;SDS011;11033;47.490;11.116;2023-12-07T07:58:03;20.52;;;13.93;;
21741;SDS011;11033;47.490;11.116;2023-12-07T08:00:28;24.73;;;16.50;;
21741;SDS011;11033;47.490;11.116;2023-12-07T08:02:54;20.92;;;14.90;;
21741;SDS011;11033;47.490;11.116;2023-12-07T08:05:20;25.50;;;15.23;;
21741;SDS011;11033;47.490;11.116;2023-12-07T08:07:46;20.98;;;15.52;;
21741;SDS011;11033;47.490;11.116;2023-12-07T08:10:11;21.30;;;13.98;;
21741;SDS011;11033;47.490;11.116;2023-12-07T08:12:36;22.88;;;14.30;;
21741;SDS011;11033;47.490;11.116;2023-12-07T08:15:04;20.65;;;13.75;;
21741;SDS011;11033;47.490;11.116;2023-12-07T08:17:29;18.48;;;12.48;;
21741;SDS011;11033;47.490;11.116;2023-12-07T08:19:55;19.92;;;12.50;;
21741;SDS011;11033;47.490;11.116;2023-12-07T08:22:20;19.73;;;11.85;;
21741;SDS011;11033;47.490;11.116;2023-12-07T08:24:45;16.02;;;11.15;;
21741;SDS011;11033;47.490;11.116;2023-12-07T08:27:11;18.58;;;13.27;;
21741;SDS011;11033;47.490;11.116;2023-12-07T08:29:36;16.35;;;10.88;;
21741;SDS011;11033;47.490;11.116;2023-12-07T08:32:01;15.35;;;10.20;;
21741;SDS011;11033;47.490;11.116;2023-12-07T08:34:27;15.13;;;9.18;;
21741;SDS011;11033;47.490;11.116;2023-12-07T08:36:53;12.93;;;7.75;;
21741;SDS011;11033;47.490;11.116;2023-12-07T08:39:18;11.70;;;8.40;;
21741;SDS011;11033;47.490;11.116;2023-12-07T08:41:43;12.50;;;9.85;;
21741;SDS011;11033;47.490;11.116;2023-12-07T08:44:09;12.55;;;9.02;;
21741;SDS011;11033;47.490;11.116;2023-12-07T08:46:34;9.95;;;8.40;;
21741;SDS011;11033;47.490;11.116;2023-12-07T08:48:59;9.63;;;6.80;;
21741;SDS011;11033;47.490;11.116;2023-12-07T08:51:25;8.35;;;6.55;;
21741;SDS011;11033;47.490;11.116;2023-12-07T08:53:50;11.70;;;5.88;;
21741;SDS011;11033;47.490;11.116;2023-12-07T08:56:17;7.70;;;6.00;;
21741;SDS011;11033;47.490;11.116;2023-12-07T08:58:43;7.13;;;6.40;;
21741;SDS011;11033;47.490;11.116;2023-12-07T09:01:09;6.55;;;5.95;;
21741;SDS011;11033;47.490;11.116;2023-12-07T09:03:34;6.93;;;5.95;;
21741;SDS011;11033;47.490;11.116;2023-12-07T09:06:00;7.13;;;5.95;;
21741;SDS011;11033;47.490;11.116;2023-12-07T09:08:26;6.95;;;5.63;;
21741;SDS011;11033;47.490;11.116;2023-12-07T09:10:51;7.82;;;5.00;;
21741;SDS011;11033;47.490;11.116;2023-12-07T09:13:17;6.03;;;3.97;;
21741;SDS011;11033;47.490;11.116;2023-12-07T09:15:43;4.00;;;3.60;;
21741;SDS011;11033;47.490;11.116;2023-12-07T09:18:08;4.38;;;3.45;;
21741;SDS011;11033;47.490;11.116;2023-12-07T09:20:35;5.00;;;4.15;;
21741;SDS011;11033;47.490;11.116;2023-12-07T09:23:01;5.28;;;4.55;;
21741;SDS011;11033;47.490;11.116;2023-12-07T09:25:26;4.53;;;3.95;;
21741;SDS011;11033;47.490;11.116;2023-12-07T09:27:53;5.22;;;4.57;;
21741;SDS011;11033;47.490;11.116;2023-12-07T09:30:18;5.05;;;4.38;;
21741;SDS011;11033;47.490;11.116;2023-12-07T09:32:43;4.82;;;4.30;;
21741;SDS011;11033;47.490;11.116;2023-12-07T09:35:09;5.10;;;4.28;;
21741;SDS011;11033;47.490;11.116;2023-12-07T09:37:44;5.32;;;4.38;;
21741;SDS011;11033;47.490;11.116;2023-12-07T09:40:20;5.53;;;4.53;;
21741;SDS011;11033;47.490;11.116;2023-12-07T09:42:46;4.45;;;4.00;;
21741;SDS011;11033;47.490;11.116;2023-12-07T09:45:12;4.32;;;3.92;;
21741;SDS011;11033;47.490;11.116;2023-12-07T09:47:43;4.75;;;4.22;;
21741;SDS011;11033;47.490;11.116;2023-12-07T09:50:13;6.37;;;4.23;;
21741;SDS011;11033;47.490;11.116;2023-12-07T09:52:40;5.03;;;4.38;;
21741;SDS011;11033;47.490;11.116;2023-12-07T09:55:07;4.53;;;4.07;;
21741;SDS011;11033;47.490;11.116;2023-12-07T09:57:33;4.40;;;4.00;;
21741;SDS011;11033;47.490;11.116;2023-12-07T09:59:59;4.82;;;4.32;;
21741;SDS011;11033;47.490;11.116;2023-12-07T10:02:25;4.97;;;4.20;;
21741;SDS011;11033;47.490;11.116;2023-12-07T10:05:03;4.20;;;3.83;;
21741;SDS011;11033;47.490;11.116;2023-12-07T10:07:33;4.20;;;3.80;;
21741;SDS011;11033;47.490;11.116;2023-12-07T10:10:00;3.72;;;3.42;;
21741;SDS011;11033;47.490;11.116;2023-12-07T10:12:26;4.35;;;3.95;;
21741;SDS011;11033;47.490;11.116;2023-12-07T10:14:51;3.63;;;3.25;;
21741;SDS011;11033;47.490;11.116;2023-12-07T10:17:16;3.78;;;3.47;;
21741;SDS011;11033;47.490;11.116;2023-12-07T10:19:42;3.50;;;3.20;;
21741;SDS011;11033;47.490;11.116;2023-12-07T10:22:13;3.65;;;3.35;;
21741;SDS011;11033;47.490;11.116;2023-12-07T10:24:39;3.30;;;3.05;;
21741;SDS011;11033;47.490;11.116;2023-12-07T10:27:05;2.90;;;2.70;;
21741;SDS011;11033;47.490;11.116;2023-12-07T10:29:34;2.60;;;2.33;;
21741;SDS011;11033;47.490;11.116;2023-12-07T10:32:03;2.60;;;2.40;;
21741;SDS011;11033;47.490;11.116;2023-12-07T10:34:30;2.75;;;2.55;;
21741;SDS011;11033;47.490;11.116;2023-12-07T10:36:56;2.80;;;2.50;;
21741;SDS011;11033;47.490;11.116;2023-12-07T10:39:23;2.53;;;2.33;;
21741;SDS011;11033;47.490;11.116;2023-12-07T10:41:49;2.60;;;2.40;;
21741;SDS011;11033;47.490;11.116;2023-12-07T10:44:20;2.53;;;2.33;;
21741;SDS011;11033;47.490;11.116;2023-12-07T10:46:50;2.40;;;2.20;;
21741;SDS011;11033;47.490;11.116;2023-12-07T10:49:18;2.70;;;2.50;;
21741;SDS011;11033;47.490;11.116;2023-12-07T10:52:20;2.85;;;2.65;;
21741;SDS011;11033;47.490;11.116;2023-12-07T10:57:04;2.65;;;2.45;;
21741;SDS011;11033;47.490;11.116;2023-12-07T10:59:31;2.60;;;2.40;;
21741;SDS011;11033;47.490;11.116;2023-12-07T11:01:57;2.90;;;2.70;;
21741;SDS011;11033;47.490;11.116;2023-12-07T11:04:23;2.60;;;2.40;;
21741;SDS011;11033;47.490;11.116;2023-12-07T11:06:50;2.40;;;2.22;;
21741;SDS011;11033;47.490;11.116;2023-12-07T11:09:21;2.40;;;2.20;;
21741;SDS011;11033;47.490;11.116;2023-12-07T11:11:57;2.25;;;2.15;;
21741;SDS011;11033;47.490;11.116;2023-12-07T11:14:29;2.00;;;1.90;;
21741;SDS011;11033;47.490;11.116;2023-12-07T11:16:55;2.70;;;2.50;;
21741;SDS011;11033;47.490;11.116;2023-12-07T11:21:59;3.13;;;2.92;;
21741;SDS011;11033;47.490;11.116;2023-12-07T11:24:25;2.72;;;2.50;;
21741;SDS011;11033;47.490;11.116;2023-12-07T11:26:54;2.67;;;2.47;;
21741;SDS011;11033;47.490;11.116;2023-12-07T11:29:20;3.10;;;2.40;;
21741;SDS011;11033;47.490;11.116;2023-12-07T11:31:46;2.13;;;2.03;;
21741;SDS011;11033;47.490;11.116;2023-12-07T11:34:13;3.03;;;2.67;;
21741;SDS011;11033;47.490;11.116;2023-12-07T11:36:39;3.70;;;2.38;;
21741;SDS011;11033;47.490;11.116;2023-12-07T11:41:34;2.53;;;2.05;;
21741;SDS011;11033;47.490;11.116;2023-12-07T11:43:59;2.60;;;2.40;;
21741;SDS011;11033;47.490;11.116;2023-12-07T11:46:25;2.60;;;2.42;;
21741;SDS011;11033;47.490;11.116;2023-12-07T11:48:50;4.68;;;4.40;;
21741;SDS011;11033;47.490;11.116;2023-12-07T11:51:16;80.20;;;75.57;;
21741;SDS011;11033;47.490;11.116;2023-12-07T11:53:42;1999.90;;;999.90;;
21741;SDS011;11033;47.490;11.116;2023-12-07T11:56:09;1999.90;;;999.90;;
21741;SDS011;11033;47.490;11.116;2023-12-07T11:58:36;1999.90;;;999.90;;
21741;SDS011;11033;47.490;11.116;2023-12-07T12:01:02;1999.90;;;999.90;;
21741;SDS011;11033;47.490;11.116;2023-12-07T12:03:29;1999.90;;;999.90;;
21741;SDS011;11033;47.490;11.116;2023-12-07T12:05:59;1999.90;;;999.90;;
21741;SDS011;11033;47.490;11.116;2023-12-07T12:08:24;1999.90;;;999.90;;
21741;SDS011;11033;47.490;11.116;2023-12-07T12:10:50;1999.90;;;999.90;;
21741;SDS011;11033;47.490;11.116;2023-12-07T12:13:18;1999.90;;;999.90;;
21741;SDS011;11033;47.490;11.116;2023-12-07T12:15:44;1999.90;;;999.90;;
21741;SDS011;11033;47.490;11.116;2023-12-07T12:18:12;24.05;;;22.90;;
21741;SDS011;11033;47.490;11.116;2023-12-07T12:20:38;6.88;;;6.47;;
21741;SDS011;11033;47.490;11.116;2023-12-07T12:23:05;5.20;;;4.90;;
21741;SDS011;11033;47.490;11.116;2023-12-07T12:25:30;4.18;;;3.97;;
21741;SDS011;11033;47.490;11.116;2023-12-07T12:28:05;4.68;;;4.47;;
21741;SDS011;11033;47.490;11.116;2023-12-07T12:30:32;5.70;;;5.30;;
21741;SDS011;11033;47.490;11.116;2023-12-07T12:32:58;4.55;;;4.25;;
21741;SDS011;11033;47.490;11.116;2023-12-07T12:35:25;7.70;;;7.30;;
21741;SDS011;11033;47.490;11.116;2023-12-07T12:37:50;3.97;;;3.67;;
21741;SDS011;11033;47.490;11.116;2023-12-07T12:40:19;4.30;;;4.00;;
21741;SDS011;11033;47.490;11.116;2023-12-07T12:42:46;5.07;;;4.68;;
21741;SDS011;11033;47.490;11.116;2023-12-07T12:45:13;4.95;;;4.63;;
21741;SDS011;11033;47.490;11.116;2023-12-07T12:47:43;4.10;;;3.80;;
21741;SDS011;11033;47.490;11.116;2023-12-07T12:50:09;4.72;;;4.38;;
21741;SDS011;11033;47.490;11.116;2023-12-07T12:52:34;3.60;;;3.40;;
21741;SDS011;11033;47.490;11.116;2023-12-07T12:55:01;3.65;;;3.45;;
21741;SDS011;11033;47.490;11.116;2023-12-07T12:57:26;4.00;;;3.80;;
21741;SDS011;11033;47.490;11.116;2023-12-07T12:59:52;5.15;;;4.95;;
21741;SDS011;11033;47.490;11.116;2023-12-07T13:02:18;6.00;;;5.70;;
21741;SDS011;11033;47.490;11.116;2023-12-07T13:04:44;7.75;;;7.35;;
21741;SDS011;11033;47.490;11.116;2023-12-07T13:07:10;9.57;;;9.07;;
21741;SDS011;11033;47.490;11.116;2023-12-07T13:09:37;10.63;;;10.02;;
21741;SDS011;11033;47.490;11.116;2023-12-07T13:12:03;17.05;;;16.13;;
21741;SDS011;11033;47.490;11.116;2023-12-07T13:14:29;1999.90;;;999.90;;
21741;SDS011;11033;47.490;11.116;2023-12-07T13:16:54;1999.90;;;999.90;;
21741;SDS011;11033;47.490;11.116;2023-12-07T13:19:19;1999.90;;;999.90;;
21741;SDS011;11033;47.490;11.116;2023-12-07T13:21:45;1999.90;;;999.90;;
21741;SDS011;11033;47.490;11.116;2023-12-07T13:24:10;1999.90;;;999.90;;
21741;SDS011;11033;47.490;11.116;2023-12-07T13:26:37;1999.90;;;999.90;;
21741;SDS011;11033;47.490;11.116;2023-12-07T13:29:03;1999.90;;;999.90;;
21741;SDS011;11033;47.490;11.116;2023-12-07T13:31:28;1999.90;;;999.90;;
21741;SDS011;11033;47.490;11.116;2023-12-07T13:33:54;1999.90;;;999.90;;
21741;SDS011;11033;47.490;11.116;2023-12-07T13:36:20;1999.90;;;999.90;;
21741;SDS011;11033;47.490;11.116;2023-12-07T13:38:47;1999.90;;;999.90;;
21741;SDS011;11033;47.490;11.116;2023-12-07T13:41:13;1999.90;;;999.90;;
21741;SDS011;11033;47.490;11.116;2023-12-07T13:43:38;6.57;;;5.97;;
21741;SDS011;11033;47.490;11.116;2023-12-07T13:46:03;2.00;;;1.80;;
21741;SDS011;11033;47.490;11.116;2023-12-07T13:48:29;3.20;;;2.22;;
21741;SDS011;11033;47.490;11.116;2023-12-07T13:50:54;2.30;;;2.00;;
21741;SDS011;11033;47.490;11.116;2023-12-07T13:53:20;2.28;;;1.83;;
21741;SDS011;11033;47.490;11.116;2023-12-07T13:55:45;1.83;;;1.70;;
21741;SDS011;11033;47.490;11.116;2023-12-07T13:58:11;2.80;;;2.50;;
21741;SDS011;11033;47.490;11.116;2023-12-07T14:00:37;2.25;;;2.08;;
21741;SDS011;11033;47.490;11.116;2023-12-07T14:03:03;2.40;;;2.20;;
21741;SDS011;11033;47.490;11.116;2023-12-07T14:05:31;3.28;;;2.47;;
21741;SDS011;11033;47.490;11.116;2023-12-07T14:07:56;2.67;;;2.47;;
21741;SDS011;11033;47.490;11.116;2023-12-07T14:10:22;2.42;;;2.17;;
21741;SDS011;11033;47.490;11.116;2023-12-07T14:12:47;2.42;;;1.88;;
21741;SDS011;11033;47.490;11.116;2023-12-07T14:15:13;2.20;;;2.00;;
21741;SDS011;11033;47.490;11.116;2023-12-07T14:17:38;3.30;;;2.17;;
21741;SDS011;11033;47.490;11.116;2023-12-07T14:20:07;2.00;;;1.90;;
21741;SDS011;11033;47.490;11.116;2023-12-07T14:22:33;2.10;;;1.90;;